Steamboat, Nevada
Current Conditions -  °F | °C
As of 12:55 AM on Tuesday 21 Oct 2014 (Local Time) from KRNO Reporting Station
Few Clouds Few Clouds  
Wind Chill:   Ceiling: Unl
Heat Index:   Visibility: 10mi
Dew Point: -1°   Wind: 15mph
Humidity: 52%   Direction: 300°WNW
Pressure: 30.02"   Gusts: NA
Location:  39.3905°N, 119.807°W
Report Text: KRNO 210755Z 30013KT 10SM FEW065 09/M01 A3002 RMK AO2 SLP129 T00891006 402330067
Loading
Personal Weather Stations






























Interactive Weather Map
Tropical Storm Tracking
New forecast layout! Learn more

10-Day Weather Forecast

Advertisements
Track Severe Weather on mobile